Time;durP1;ratioP1;P1;durP2;ratioP2;P2;SDS_P1;SDS_P2;PMS_P1;PMS_P2;Temp;Humidity;BMP_temperature;BMP_pressure;BME280_temperature;BME280_humidity;BME280_pressure;Samples;Min_cycle;Max_cycle;Signal;HPM_P1;HPM_P2
2021/01/12 00:00:15;;;;;;;;;;;;;;;;;;5072839;28;1897;-71
2021/01/12 00:02:41;;;;;;;;;;;;;;;;;;5074621;28;859;-72
2021/01/12 00:05:06;;;;;;;;;;;;;;;;;;5074271;28;1325;-74
2021/01/12 00:07:32;;;;;;;;;;;;;;;;;;5072714;28;869;-71
2021/01/12 00:09:57;;;;;;;;;;;;;;;;;;5072843;28;980;-71
2021/01/12 00:12:22;;;;;;;;;;;;;;;;;;5074287;28;908;-73
2021/01/12 00:14:48;;;;;;;;;;;;;;;;;;5074092;28;1298;-73
2021/01/12 00:17:13;;;;;;;;;;;;;;;;;;5073022;28;839;-72
2021/01/12 00:19:39;;;;;;;;;;;;;;;;;;5074244;28;1936;-73
2021/01/12 00:22:13;;;;;;;;;;;;;;;;;;5066534;28;1350;-72
2021/01/12 00:24:39;;;;;;;;;;;;;;;;;;5076778;28;1472;-71
2021/01/12 00:27:04;;;;;;;;;;;;;;;;;;5078082;28;877;-73
2021/01/12 00:29:31;;;;;;;;;;;;;;;;;;5078111;28;829;-72
2021/01/12 00:31:56;;;;;;;;;;;;;;;;;;5076662;28;1135;-71
2021/01/12 00:34:22;;;;;;;;;;;;;;;;;;5077811;28;1411;-74
2021/01/12 00:36:49;;;;;;;;;;;;;;;;;;5077850;28;810;-74
2021/01/12 00:39:14;;;;;;;;;;;;;;;;;;5077449;28;1914;-74
2021/01/12 00:41:40;;;;;;;;;;;;;;;;;;5077827;28;842;-73
2021/01/12 00:44:06;;;;;;;;;;;;;;;;;;5076527;28;1299;-71
2021/01/12 00:46:32;;;;;;;;;;;;;;;;;;5077787;28;1389;-72
2021/01/12 00:48:57;;;;;;;;;;;;;;;;;;5076290;28;1575;-71
2021/01/12 00:51:31;;;;;;;;;;;;;;;;;;5076232;28;1393;-73
2021/01/12 00:53:56;;;;;;;;;;;;;;;;;;5076244;28;865;-73
2021/01/12 00:56:22;;;;;;;;;;;;;;;;;;5077703;28;1298;-71
2021/01/12 00:58:47;;;;;;;;;;;;;;;;;;5076271;28;1199;-74
2021/01/12 01:01:12;;;;;;;;;;;;;;;;;;5075822;28;1893;-71
2021/01/12 01:03:37;;;;;;;;;;;;;;;;;;5077396;28;940;-72
2021/01/12 01:06:06;;;;;;;;;;;;;;;;;;5077224;28;1361;-72
2021/01/12 01:08:31;;;;;;;;;;;;;;;;;;5076000;28;1198;-73
2021/01/12 01:10:56;;;;;;;;;;;;;;;;;;5077295;28;878;-73
2021/01/12 01:13:23;;;;;;;;;;;;;;;;;;5075858;28;1165;-72
2021/01/12 01:15:48;;;;;;;;;;;;;;;;;;5077133;28;1376;-72
2021/01/12 01:18:13;;;;;;;;;;;;;;;;;;5077154;28;920;-74
2021/01/12 01:20:38;;;;;;;;;;;;;;;;;;5076899;28;1897;-74
2021/01/12 01:23:03;;;;;;;;;;;;;;;;;;5076020;28;1256;-73
2021/01/12 01:25:29;;;;;;;;;;;;;;;;;;5076976;28;1404;-73
2021/01/12 01:27:54;;;;;;;;;;;;;;;;;;5076911;28;860;-72
2021/01/12 01:30:19;;;;;;;;;;;;;;;;;;5076852;28;872;-71
2021/01/12 01:32:45;;;;;;;;;;;;;;;;;;5075653;28;940;-73
2021/01/12 01:35:10;;;;;;;;;;;;;;;;;;5076660;28;1384;-73
2021/01/12 01:37:35;;;;;;;;;;;;;;;;;;5076761;28;911;-74
2021/01/12 01:40:01;;;;;;;;;;;;;;;;;;5076448;28;1893;-74
2021/01/12 01:42:26;;;;;;;;;;;;;;;;;;5076774;28;876;-71
2021/01/12 01:44:52;;;;;;;;;;;;;;;;;;5076379;28;1396;-71
2021/01/12 01:47:17;;;;;;;;;;;;;;;;;;5076649;28;1317;-71
2021/01/12 01:49:42;;;;;;;;;;;;;;;;;;5076347;28;929;-71
2021/01/12 01:52:08;;;;;;;;;;;;;;;;;;5076522;28;1370;-74
2021/01/12 01:54:33;;;;;;;;;;;;;;;;;;5075133;28;1376;-74
2021/01/12 01:56:59;;;;;;;;;;;;;;;;;;5074925;28;1397;-73
2021/01/12 01:59:24;;;;;;;;;;;;;;;;;;5076282;28;1898;-72
2021/01/12 02:01:50;;;;;;;;;;;;;;;;;;5074990;28;1436;-74
2021/01/12 02:04:23;;;;;;;;;;;;;;;;;;5076479;28;885;-71
2021/01/12 02:06:50;;;;;;;;;;;;;;;;;;5075927;28;880;-71
2021/01/12 02:09:29;;;;;;;;;;;;;;;;;;5076277;28;887;-70
2021/01/12 02:11:59;;;;;;;;;;;;;;;;;;5074951;28;1308;-72
2021/01/12 02:14:27;;;;;;;;;;;;;;;;;;5076008;28;1381;-71
2021/01/12 02:16:52;;;;;;;;;;;;;;;;;;5075740;28;824;-72
2021/01/12 02:19:19;;;;;;;;;;;;;;;;;;5074579;28;1959;-72
2021/01/12 02:21:46;;;;;;;;;;;;;;;;;;5075716;28;1135;-73
2021/01/12 02:24:12;;;;;;;;;;;;;;;;;;5076021;28;857;-72
2021/01/12 02:26:37;;;;;;;;;;;;;;;;;;5075616;28;1448;-70
2021/01/12 02:29:03;;;;;;;;;;;;;;;;;;5075768;28;967;-73
2021/01/12 02:31:29;;;;;;;;;;;;;;;;;;5075411;28;960;-71
2021/01/12 02:33:56;;;;;;;;;;;;;;;;;;5075656;28;968;-70
2021/01/12 02:36:22;;;;;;;;;;;;;;;;;;5075473;28;1313;-71
2021/01/12 02:38:48;;;;;;;;;;;;;;;;;;5075436;28;856;-71
2021/01/12 02:41:14;;;;;;;;;;;;;;;;;;5075180;28;1894;-74
2021/01/12 02:43:40;;;;;;;;;;;;;;;;;;5073844;28;1188;-74
2021/01/12 02:46:05;;;;;;;;;;;;;;;;;;5073887;28;1468;-71
2021/01/12 02:48:31;;;;;;;;;;;;;;;;;;5075008;28;845;-70
2021/01/12 02:50:56;;;;;;;;;;;;;;;;;;5075105;28;995;-74
2021/01/12 02:53:21;;;;;;;;;;;;;;;;;;5075200;28;881;-74
2021/01/12 02:55:46;;;;;;;;;;;;;;;;;;5075433;28;1313;-73
2021/01/12 02:58:11;;;;;;;;;;;;;;;;;;5073893;28;1255;-74
2021/01/12 03:00:37;;;;;;;;;;;;;;;;;;5074749;28;1983;-71
2021/01/12 03:03:02;;;;;;;;;;;;;;;;;;5075033;28;891;-72
2021/01/12 03:05:27;;;;;;;;;;;;;;;;;;5075012;28;1306;-74
2021/01/12 03:07:54;;;;;;;;;;;;;;;;;;5075003;28;892;-72
2021/01/12 03:10:19;;;;;;;;;;;;;;;;;;5073629;28;1648;-71
2021/01/12 03:12:44;;;;;;;;;;;;;;;;;;5074744;28;887;-74
2021/01/12 03:15:10;;;;;;;;;;;;;;;;;;5074955;28;1282;-73
2021/01/12 03:17:35;;;;;;;;;;;;;;;;;;5074736;28;848;-73
2021/01/12 03:20:00;;;;;;;;;;;;;;;;;;5074593;28;1898;-73
2021/01/12 03:22:26;;;;;;;;;;;;;;;;;;5074526;28;1194;-73
2021/01/12 03:24:51;;;;;;;;;;;;;;;;;;5074715;28;1365;-74
2021/01/12 03:27:17;;;;;;;;;;;;;;;;;;5074835;28;809;-73
2021/01/12 03:29:42;;;;;;;;;;;;;;;;;;5073241;28;1374;-72
2021/01/12 03:32:07;;;;;;;;;;;;;;;;;;5073497;28;853;-73
2021/01/12 03:34:32;;;;;;;;;;;;;;;;;;5073221;28;1679;-71
2021/01/12 03:36:58;;;;;;;;;;;;;;;;;;5074639;28;896;-75
2021/01/12 03:39:23;;;;;;;;;;;;;;;;;;5073696;28;1901;-73
2021/01/12 03:41:48;;;;;;;;;;;;;;;;;;5074320;28;1039;-71
2021/01/12 03:44:13;;;;;;;;;;;;;;;;;;5073343;28;1194;-75
2021/01/12 03:46:39;;;;;;;;;;;;;;;;;;5073198;28;2398;-72
2021/01/12 03:49:05;;;;;;;;;;;;;;;;;;5074707;28;900;-73
2021/01/12 03:51:31;;;;;;;;;;;;;;;;;;5073074;28;1182;-73
2021/01/12 03:53:56;;;;;;;;;;;;;;;;;;5074062;28;804;-72
2021/01/12 03:56:21;;;;;;;;;;;;;;;;;;5072765;28;1365;-73
2021/01/12 03:58:46;;;;;;;;;;;;;;;;;;5074431;28;951;-72
2021/01/12 04:01:12;;;;;;;;;;;;;;;;;;5074025;28;1964;-72
2021/01/12 04:03:38;;;;;;;;;;;;;;;;;;5074298;28;829;-74
2021/01/12 04:06:09;;;;;;;;;;;;;;;;;;5074197;28;1404;-75
2021/01/12 04:08:34;;;;;;;;;;;;;;;;;;5074425;28;908;-73
2021/01/12 04:11:00;;;;;;;;;;;;;;;;;;5073128;28;1221;-73
2021/01/12 04:13:25;;;;;;;;;;;;;;;;;;5073333;28;904;-73
2021/01/12 04:15:50;;;;;;;;;;;;;;;;;;5073681;28;1483;-74
2021/01/12 04:18:16;;;;;;;;;;;;;;;;;;5073246;28;1238;-74
2021/01/12 04:20:41;;;;;;;;;;;;;;;;;;5074032;28;1963;-71
2021/01/12 04:23:06;;;;;;;;;;;;;;;;;;5074197;28;865;-72
2021/01/12 04:25:35;;;;;;;;;;;;;;;;;;5073086;28;1373;-74
2021/01/12 04:28:00;;;;;;;;;;;;;;;;;;5073948;28;833;-74
2021/01/12 04:30:26;;;;;;;;;;;;;;;;;;5074036;28;854;-70
2021/01/12 04:32:51;;;;;;;;;;;;;;;;;;5074054;28;841;-74
2021/01/12 04:35:16;;;;;;;;;;;;;;;;;;5072547;28;1460;-74
2021/01/12 04:37:41;;;;;;;;;;;;;;;;;;5074064;28;836;-73
2021/01/12 04:40:07;;;;;;;;;;;;;;;;;;5073694;28;1906;-73
2021/01/12 04:42:33;;;;;;;;;;;;;;;;;;5074020;28;853;-71
2021/01/12 04:44:59;;;;;;;;;;;;;;;;;;5072612;28;1357;-73
2021/01/12 04:47:24;;;;;;;;;;;;;;;;;;5074000;28;817;-74
2021/01/12 04:49:49;;;;;;;;;;;;;;;;;;5072263;28;1536;-72
2021/01/12 04:52:15;;;;;;;;;;;;;;;;;;5074062;28;880;-75
2021/01/12 04:54:40;;;;;;;;;;;;;;;;;;5073954;28;1329;-70
2021/01/12 04:57:05;;;;;;;;;;;;;;;;;;5072564;28;809;-73
2021/01/12 04:59:31;;;;;;;;;;;;;;;;;;5072251;28;1898;-72
2021/01/12 05:01:57;;;;;;;;;;;;;;;;;;5073733;28;879;-73
2021/01/12 05:04:22;;;;;;;;;;;;;;;;;;5072435;28;1381;-74
2021/01/12 05:06:47;;;;;;;;;;;;;;;;;;5075599;28;841;-71
2021/01/12 05:09:18;;;;;;;;;;;;;;;;;;5076065;28;1006;-75
2021/01/12 05:11:44;;;;;;;;;;;;;;;;;;5076239;28;1143;-71
2021/01/12 05:14:09;;;;;;;;;;;;;;;;;;5077272;28;908;-72
2021/01/12 05:16:48;;;;;;;;;;;;;;;;;;5076969;28;1393;-72
2021/01/12 05:19:18;;;;;;;;;;;;;;;;;;5077347;28;844;-74
2021/01/12 05:21:44;;;;;;;;;;;;;;;;;;5076788;28;813;-72
2021/01/12 05:24:11;;;;;;;;;;;;;;;;;;5076252;28;1557;-74
2021/01/12 05:26:37;;;;;;;;;;;;;;;;;;5076919;28;1527;-72
2021/01/12 05:29:03;;;;;;;;;;;;;;;;;;5076910;28;892;-75
2021/01/12 05:31:29;;;;;;;;;;;;;;;;;;5076783;28;849;-72
2021/01/12 05:33:55;;;;;;;;;;;;;;;;;;5077126;28;844;-71
2021/01/12 05:36:20;;;;;;;;;;;;;;;;;;5076611;28;1348;-73
2021/01/12 05:38:47;;;;;;;;;;;;;;;;;;5076849;28;963;-73
2021/01/12 05:41:13;;;;;;;;;;;;;;;;;;5075226;28;1906;-70
2021/01/12 05:43:39;;;;;;;;;;;;;;;;;;5075688;28;928;-71
2021/01/12 05:46:09;;;;;;;;;;;;;;;;;;5075115;28;1832;-73
2021/01/12 05:48:35;;;;;;;;;;;;;;;;;;5075493;28;1105;-74
2021/01/12 05:51:02;;;;;;;;;;;;;;;;;;5076482;28;825;-75
2021/01/12 05:53:32;;;;;;;;;;;;;;;;;;5076479;28;806;-71
2021/01/12 05:56:00;;;;;;;;;;;;;;;;;;5076434;28;1333;-74
2021/01/12 05:58:29;;;;;;;;;;;;;;;;;;5075008;28;1360;-74
2021/01/12 06:00:55;;;;;;;;;;;;;;;;;;5076449;28;1961;-73
2021/01/12 06:03:24;;;;;;;;;;;;;;;;;;5076351;28;845;-71
2021/01/12 06:05:49;;;;;;;;;;;;;;;;;;5075099;28;1360;-70
2021/01/12 06:08:15;;;;;;;;;;;;;;;;;;5075951;28;864;-72
2021/01/12 06:10:44;;;;;;;;;;;;;;;;;;5076027;28;943;-70
2021/01/12 06:13:17;;;;;;;;;;;;;;;;;;5076388;28;872;-75
2021/01/12 06:15:43;;;;;;;;;;;;;;;;;;5075073;28;1445;-75
2021/01/12 06:18:11;;;;;;;;;;;;;;;;;;5074044;28;1339;-74
2021/01/12 06:20:54;;;;;;;;;;;;;;;;;;5075495;28;1902;-71
2021/01/12 06:23:45;;;;;;;;;;;;;;;;;;5075962;28;837;-74
2021/01/12 06:26:12;;;;;;;;;;;;;;;;;;5075251;28;1251;-74
2021/01/12 06:28:37;;;;;;;;;;;;;;;;;;5075836;28;952;-70
2021/01/12 06:31:04;;;;;;;;;;;;;;;;;;5075529;28;952;-74
2021/01/12 06:33:31;;;;;;;;;;;;;;;;;;5074203;28;890;-74
2021/01/12 06:36:00;;;;;;;;;;;;;;;;;;5075676;28;1388;-72
2021/01/12 06:38:25;;;;;;;;;;;;;;;;;;5075666;28;872;-71
2021/01/12 06:40:53;;;;;;;;;;;;;;;;;;5075382;28;1959;-74
2021/01/12 06:43:23;;;;;;;;;;;;;;;;;;5075319;28;979;-75
2021/01/12 06:45:49;;;;;;;;;;;;;;;;;;5073972;28;1449;-74
2021/01/12 06:48:15;;;;;;;;;;;;;;;;;;5075471;28;852;-73
2021/01/12 06:50:44;;;;;;;;;;;;;;;;;;5075274;28;797;-74
2021/01/12 06:53:11;;;;;;;;;;;;;;;;;;5075320;28;918;-74
2021/01/12 06:55:37;;;;;;;;;;;;;;;;;;5075188;28;1420;-72
2021/01/12 06:58:06;;;;;;;;;;;;;;;;;;5073740;28;1352;-75
2021/01/12 07:00:34;;;;;;;;;;;;;;;;;;5074841;28;1914;-71
2021/01/12 07:03:01;;;;;;;;;;;;;;;;;;5074161;28;1246;-71
2021/01/12 07:05:46;;;;;;;;;;;;;;;;;;5075039;28;1301;-71
2021/01/12 07:08:12;;;;;;;;;;;;;;;;;;5074697;28;1126;-73
2021/01/12 07:10:44;;;;;;;;;;;;;;;;;;5074724;28;932;-72
2021/01/12 07:13:10;;;;;;;;;;;;;;;;;;5074759;28;1073;-73
2021/01/12 07:15:42;;;;;;;;;;;;;;;;;;5073528;28;1432;-72
2021/01/12 07:18:08;;;;;;;;;;;;;;;;;;5073656;28;1697;-73
2021/01/12 07:20:35;;;;;;;;;;;;;;;;;;5073251;28;1898;-70
2021/01/12 07:23:01;;;;;;;;;;;;;;;;;;5074803;28;874;-73
2021/01/12 07:25:27;;;;;;;;;;;;;;;;;;5074407;28;1313;-74
2021/01/12 07:27:57;;;;;;;;;;;;;;;;;;5074678;28;892;-71
2021/01/12 07:30:22;;;;;;;;;;;;;;;;;;5073126;28;1174;-70
2021/01/12 07:32:53;;;;;;;;;;;;;;;;;;5074644;28;832;-74
2021/01/12 07:35:18;;;;;;;;;;;;;;;;;;5074614;28;1361;-71
2021/01/12 07:37:44;;;;;;;;;;;;;;;;;;5073309;28;1371;-71
2021/01/12 07:40:13;;;;;;;;;;;;;;;;;;5074225;28;1898;-70
2021/01/12 07:42:48;;;;;;;;;;;;;;;;;;5074580;28;861;-70
2021/01/12 07:45:14;;;;;;;;;;;;;;;;;;5074457;28;1277;-71
2021/01/12 07:47:40;;;;;;;;;;;;;;;;;;5074167;28;955;-72
2021/01/12 07:50:06;;;;;;;;;;;;;;;;;;5074289;28;1062;-72
2021/01/12 07:52:32;;;;;;;;;;;;;;;;;;5074535;28;1071;-72
2021/01/12 07:54:58;;;;;;;;;;;;;;;;;;5074524;28;1310;-74
2021/01/12 07:57:23;;;;;;;;;;;;;;;;;;5072974;28;1639;-72
2021/01/12 07:59:50;;;;;;;;;;;;;;;;;;5072958;28;1881;-70
2021/01/12 08:02:16;;;;;;;;;;;;;;;;;;5074458;28;836;-71
2021/01/12 08:04:42;;;;;;;;;;;;;;;;;;5074733;28;1448;-72
2021/01/12 08:07:07;;;;;;;;;;;;;;;;;;5074153;28;852;-71
2021/01/12 08:09:33;;;;;;;;;;;;;;;;;;5073000;28;1226;-74
2021/01/12 08:12:00;;;;;;;;;;;;;;;;;;5074106;28;943;-70
2021/01/12 08:14:25;;;;;;;;;;;;;;;;;;5072886;28;1270;-73
2021/01/12 08:16:52;;;;;;;;;;;;;;;;;;5072748;28;830;-71
2021/01/12 08:19:24;;;;;;;;;;;;;;;;;;5073113;28;1410;-74
2021/01/12 08:21:51;;;;;;;;;;;;;;;;;;5074232;28;857;-72
2021/01/12 08:24:23;;;;;;;;;;;;;;;;;;5074090;28;833;-71
2021/01/12 08:26:48;;;;;;;;;;;;;;;;;;5072676;28;897;-70
2021/01/12 08:29:14;;;;;;;;;;;;;;;;;;5074055;28;1052;-74
2021/01/12 08:31:48;;;;;;;;;;;;;;;;;;5073990;28;945;-70
2021/01/12 08:34:15;;;;;;;;;;;;;;;;;;5072314;28;1706;-72
2021/01/12 08:36:40;;;;;;;;;;;;;;;;;;5074021;28;1387;-73
2021/01/12 08:39:06;;;;;;;;;;;;;;;;;;5074196;28;935;-70
2021/01/12 08:41:32;;;;;;;;;;;;;;;;;;5074382;28;1906;-71
2021/01/12 08:43:58;;;;;;;;;;;;;;;;;;5077844;28;817;-71
2021/01/12 08:46:27;;;;;;;;;;;;;;;;;;5076147;28;1436;-71
2021/01/12 08:48:53;;;;;;;;;;;;;;;;;;5077719;28;870;-70
2021/01/12 08:51:19;;;;;;;;;;;;;;;;;;5077539;28;900;-69
2021/01/12 08:53:49;;;;;;;;;;;;;;;;;;5076371;28;1313;-74
2021/01/12 08:56:14;;;;;;;;;;;;;;;;;;5077332;28;1290;-73
2021/01/12 08:58:40;;;;;;;;;;;;;;;;;;5077627;28;1007;-71
2021/01/12 09:01:05;;;;;;;;;;;;;;;;;;5075894;28;1975;-72
2021/01/12 09:03:30;;;;;;;;;;;;;;;;;;5077573;28;828;-72
2021/01/12 09:05:56;;;;;;;;;;;;;;;;;;5075953;28;1349;-71
2021/01/12 09:08:22;;;;;;;;;;;;;;;;;;5076312;28;1346;-71
2021/01/12 09:10:48;;;;;;;;;;;;;;;;;;5077330;28;860;-69
2021/01/12 09:13:13;;;;;;;;;;;;;;;;;;5077415;28;844;-70
2021/01/12 09:15:43;;;;;;;;;;;;;;;;;;5075498;28;1416;-75
2021/01/12 09:18:19;;;;;;;;;;;;;;;;;;5076093;28;1237;-71
2021/01/12 09:20:52;;;;;;;;;;;;;;;;;;5077173;28;1898;-71
2021/01/12 09:23:17;;;;;;;;;;;;;;;;;;5077375;28;852;-71
2021/01/12 09:25:49;;;;;;;;;;;;;;;;;;5076822;28;1368;-73
2021/01/12 09:28:15;;;;;;;;;;;;;;;;;;5077090;28;904;-73
2021/01/12 09:30:42;;;;;;;;;;;;;;;;;;5075882;28;812;-72
2021/01/12 09:33:07;;;;;;;;;;;;;;;;;;5075729;28;845;-73
2021/01/12 09:35:33;;;;;;;;;;;;;;;;;;5076674;28;1318;-74
2021/01/12 09:37:59;;;;;;;;;;;;;;;;;;5076849;28;895;-72
2021/01/12 09:40:24;;;;;;;;;;;;;;;;;;5075279;28;1902;-70
2021/01/12 09:42:50;;;;;;;;;;;;;;;;;;5076512;28;931;-75
2021/01/12 09:45:15;;;;;;;;;;;;;;;;;;5075286;28;1553;-70
2021/01/12 09:47:40;;;;;;;;;;;;;;;;;;5076703;28;797;-75
2021/01/12 09:50:06;;;;;;;;;;;;;;;;;;5076633;28;797;-70
2021/01/12 09:52:31;;;;;;;;;;;;;;;;;;5074034;28;1082;-72
2021/01/12 09:54:57;;;;;;;;;;;;;;;;;;5075477;28;1475;-71
2021/01/12 09:57:22;;;;;;;;;;;;;;;;;;5076340;28;864;-73
2021/01/12 09:59:47;;;;;;;;;;;;;;;;;;5074960;28;1902;-71
2021/01/12 10:02:12;;;;;;;;;;;;;;;;;;5075160;28;1156;-71
2021/01/12 10:04:37;;;;;;;;;;;;;;;;;;5075225;28;1297;-74
2021/01/12 10:07:03;;;;;;;;;;;;;;;;;;5076164;28;916;-72
2021/01/12 10:09:28;;;;;;;;;;;;;;;;;;5076166;28;869;-71
2021/01/12 10:11:54;;;;;;;;;;;;;;;;;;5075976;28;805;-74
2021/01/12 10:14:19;;;;;;;;;;;;;;;;;;5076059;28;852;-73
2021/01/12 10:16:45;;;;;;;;;;;;;;;;;;5076185;28;1321;-71
2021/01/12 10:19:10;;;;;;;;;;;;;;;;;;5076124;28;862;-71
2021/01/12 10:21:36;;;;;;;;;;;;;;;;;;5075823;28;1957;-74
2021/01/12 10:24:01;;;;;;;;;;;;;;;;;;5074730;28;861;-74
2021/01/12 10:26:26;;;;;;;;;;;;;;;;;;5075877;28;1396;-74
2021/01/12 10:28:52;;;;;;;;;;;;;;;;;;5074605;28;1300;-70
2021/01/12 10:31:20;;;;;;;;;;;;;;;;;;5074511;28;883;-74
2021/01/12 10:33:45;;;;;;;;;;;;;;;;;;5074317;28;1313;-72
2021/01/12 10:36:17;;;;;;;;;;;;;;;;;;5074711;28;1482;-71
2021/01/12 10:38:43;;;;;;;;;;;;;;;;;;5075735;28;875;-71
2021/01/12 10:41:08;;;;;;;;;;;;;;;;;;5074091;28;1894;-74
2021/01/12 10:43:34;;;;;;;;;;;;;;;;;;5075686;28;1002;-74
2021/01/12 10:46:00;;;;;;;;;;;;;;;;;;5074125;28;1357;-70
2021/01/12 10:48:25;;;;;;;;;;;;;;;;;;5075260;28;797;-71
2021/01/12 10:50:51;;;;;;;;;;;;;;;;;;5074105;28;1329;-70
2021/01/12 10:53:16;;;;;;;;;;;;;;;;;;5074445;28;1530;-70
2021/01/12 10:55:41;;;;;;;;;;;;;;;;;;5073871;28;2732;-73
2021/01/12 10:58:06;;;;;;;;;;;;;;;;;;5075196;28;912;-72
2021/01/12 11:00:32;;;;;;;;;;;;;;;;;;5074952;28;1959;-69
2021/01/12 11:02:57;;;;;;;;;;;;;;;;;;5075220;28;856;-69
2021/01/12 11:05:22;;;;;;;;;;;;;;;;;;5073531;28;1390;-71
2021/01/12 11:07:48;;;;;;;;;;;;;;;;;;5073846;28;1340;-71
2021/01/12 11:10:13;;;;;;;;;;;;;;;;;;5074925;28;816;-69
2021/01/12 11:12:39;;;;;;;;;;;;;;;;;;5074854;28;805;-73
2021/01/12 11:15:04;;;;;;;;;;;;;;;;;;5074993;28;1317;-75
2021/01/12 11:17:30;;;;;;;;;;;;;;;;;;5074864;28;843;-75
2021/01/12 11:19:56;;;;;;;;;;;;;;;;;;5074643;28;1902;-73
2021/01/12 11:22:27;;;;;;;;;;;;;;;;;;5074903;28;860;-70
2021/01/12 11:24:56;;;;;;;;;;;;;;;;;;5074384;28;1471;-70
2021/01/12 11:27:21;;;;;;;;;;;;;;;;;;5074758;28;809;-70
2021/01/12 11:29:47;;;;;;;;;;;;;;;;;;5074612;28;916;-73
2021/01/12 11:32:13;;;;;;;;;;;;;;;;;;5073522;28;1230;-72
2021/01/12 11:34:39;;;;;;;;;;;;;;;;;;5074810;28;1305;-71
2021/01/12 11:37:04;;;;;;;;;;;;;;;;;;5073187;28;856;-71
2021/01/12 11:39:30;;;;;;;;;;;;;;;;;;5073491;28;912;-73
2021/01/12 11:41:56;;;;;;;;;;;;;;;;;;5073325;28;2002;-72
2021/01/12 11:44:22;;;;;;;;;;;;;;;;;;5073352;28;1385;-72
2021/01/12 11:46:47;;;;;;;;;;;;;;;;;;5073305;28;814;-73
2021/01/12 11:49:13;;;;;;;;;;;;;;;;;;5073205;28;1202;-71
2021/01/12 11:51:39;;;;;;;;;;;;;;;;;;5073480;28;881;-71
2021/01/12 11:54:05;;;;;;;;;;;;;;;;;;5073225;28;1182;-70
2021/01/12 11:56:31;;;;;;;;;;;;;;;;;;5073136;28;1464;-70
2021/01/12 11:58:56;;;;;;;;;;;;;;;;;;5074634;28;789;-70
2021/01/12 12:01:21;;;;;;;;;;;;;;;;;;5072815;28;1943;-74
2021/01/12 12:03:46;;;;;;;;;;;;;;;;;;5074286;28;995;-74
2021/01/12 12:06:12;;;;;;;;;;;;;;;;;;5073605;28;1494;-72
2021/01/12 12:08:37;;;;;;;;;;;;;;;;;;5074668;28;869;-71
2021/01/12 12:11:03;;;;;;;;;;;;;;;;;;5074146;28;874;-72
2021/01/12 12:13:28;;;;;;;;;;;;;;;;;;5074149;28;889;-72
2021/01/12 12:15:54;;;;;;;;;;;;;;;;;;5074809;28;1418;-67
2021/01/12 12:18:19;;;;;;;;;;;;;;;;;;5078478;28;848;-70
2021/01/12 12:20:44;;;;;;;;;;;;;;;;;;5076604;28;1938;-69
2021/01/12 12:23:10;;;;;;;;;;;;;;;;;;5078149;28;1048;-72
2021/01/12 12:25:35;;;;;;;;;;;;;;;;;;5078099;28;1334;-70
2021/01/12 12:28:00;;;;;;;;;;;;;;;;;;5078373;28;848;-73
2021/01/12 12:30:25;;;;;;;;;;;;;;;;;;5077913;28;872;-69
2021/01/12 12:32:51;;;;;;;;;;;;;;;;;;5078259;28;903;-70
2021/01/12 12:35:16;;;;;;;;;;;;;;;;;;5077065;28;1377;-69
2021/01/12 12:37:41;;;;;;;;;;;;;;;;;;5077933;28;852;-67
2021/01/12 12:40:07;;;;;;;;;;;;;;;;;;5077750;28;1898;-68
2021/01/12 12:42:32;;;;;;;;;;;;;;;;;;5076659;28;837;-68
2021/01/12 12:44:57;;;;;;;;;;;;;;;;;;5076672;28;1352;-68
2021/01/12 12:47:23;;;;;;;;;;;;;;;;;;5076521;28;826;-68
2021/01/12 12:49:49;;;;;;;;;;;;;;;;;;5076520;28;1403;-67
2021/01/12 12:52:15;;;;;;;;;;;;;;;;;;5076555;28;1202;-67
2021/01/12 12:54:40;;;;;;;;;;;;;;;;;;5077475;28;1331;-70
2021/01/12 12:57:07;;;;;;;;;;;;;;;;;;5076400;28;956;-70
2021/01/12 12:59:33;;;;;;;;;;;;;;;;;;5076312;28;908;-69
2021/01/12 13:01:58;;;;;;;;;;;;;;;;;;5077329;28;999;-68
2021/01/12 13:04:24;;;;;;;;;;;;;;;;;;5076269;28;1370;-68
2021/01/12 13:06:50;;;;;;;;;;;;;;;;;;5077433;28;1167;-68
2021/01/12 13:09:15;;;;;;;;;;;;;;;;;;5077424;28;922;-67
2021/01/12 13:11:45;;;;;;;;;;;;;;;;;;5075743;28;1123;-67
2021/01/12 13:14:11;;;;;;;;;;;;;;;;;;5075766;28;858;-67
2021/01/12 13:16:40;;;;;;;;;;;;;;;;;;5077025;28;1353;-66
2021/01/12 13:19:10;;;;;;;;;;;;;;;;;;5077260;28;889;-66
2021/01/12 13:21:36;;;;;;;;;;;;;;;;;;5077104;28;1906;-66
2021/01/12 13:24:01;;;;;;;;;;;;;;;;;;5075726;28;921;-64
2021/01/12 13:26:26;;;;;;;;;;;;;;;;;;5076629;28;1385;-64
2021/01/12 13:28:51;;;;;;;;;;;;;;;;;;5077109;28;814;-65
2021/01/12 13:31:17;;;;;;;;;;;;;;;;;;5076764;28;891;-64
2021/01/12 13:33:42;;;;;;;;;;;;;;;;;;5076003;28;865;-64
2021/01/12 13:36:08;;;;;;;;;;;;;;;;;;5076781;28;1298;-64
2021/01/12 13:38:33;;;;;;;;;;;;;;;;;;5076703;28;897;-65
2021/01/12 13:40:58;;;;;;;;;;;;;;;;;;5076786;28;1898;-66
2021/01/12 13:43:23;;;;;;;;;;;;;;;;;;5076785;28;1015;-65
2021/01/12 13:45:49;;;;;;;;;;;;;;;;;;5075493;28;1460;-65
2021/01/12 13:48:14;;;;;;;;;;;;;;;;;;5076875;28;877;-65
2021/01/12 13:50:40;;;;;;;;;;;;;;;;;;5076436;28;912;-65
2021/01/12 13:53:05;;;;;;;;;;;;;;;;;;5076588;28;894;-65
2021/01/12 13:55:31;;;;;;;;;;;;;;;;;;5076610;28;1292;-65
2021/01/12 13:58:03;;;;;;;;;;;;;;;;;;5076436;28;891;-65
2021/01/12 14:00:29;;;;;;;;;;;;;;;;;;5076330;28;1956;-65
2021/01/12 14:02:56;;;;;;;;;;;;;;;;;;5076586;28;880;-64
2021/01/12 14:05:22;;;;;;;;;;;;;;;;;;5074928;28;1797;-65
2021/01/12 14:07:47;;;;;;;;;;;;;;;;;;5076155;28;864;-66
2021/01/12 14:10:13;;;;;;;;;;;;;;;;;;5076160;28;944;-65
2021/01/12 14:12:40;;;;;;;;;;;;;;;;;;5075311;28;1243;-65
2021/01/12 14:15:06;;;;;;;;;;;;;;;;;;5076315;28;1313;-66
2021/01/12 14:17:31;;;;;;;;;;;;;;;;;;5075882;28;983;-66
2021/01/12 14:19:57;;;;;;;;;;;;;;;;;;5074725;28;1966;-65
2021/01/12 14:22:26;;;;;;;;;;;;;;;;;;5076160;28;913;-65
2021/01/12 14:24:52;;;;;;;;;;;;;;;;;;5075896;28;1400;-65
2021/01/12 14:27:18;;;;;;;;;;;;;;;;;;5076106;28;860;-65
2021/01/12 14:29:44;;;;;;;;;;;;;;;;;;5075627;28;1445;-63
2021/01/12 14:32:10;;;;;;;;;;;;;;;;;;5075840;28;971;-63
2021/01/12 14:34:36;;;;;;;;;;;;;;;;;;5075694;28;1285;-62
2021/01/12 14:37:03;;;;;;;;;;;;;;;;;;5075802;28;860;-62
2021/01/12 14:39:53;;;;;;;;;;;;;;;;;;5074953;28;928;-62
2021/01/12 14:42:18;;;;;;;;;;;;;;;;;;5074467;28;1222;-64
2021/01/12 14:44:43;;;;;;;;;;;;;;;;;;5074625;28;1282;-62
2021/01/12 14:47:13;;;;;;;;;;;;;;;;;;5075268;28;889;-62
2021/01/12 14:49:38;;;;;;;;;;;;;;;;;;5074099;28;861;-62
2021/01/12 14:52:04;;;;;;;;;;;;;;;;;;5074446;28;1123;-62
2021/01/12 14:54:29;;;;;;;;;;;;;;;;;;5074121;28;1310;-62
2021/01/12 14:56:54;;;;;;;;;;;;;;;;;;5075278;28;856;-62
2021/01/12 14:59:19;;;;;;;;;;;;;;;;;;5075000;28;1001;-62
2021/01/12 15:01:45;;;;;;;;;;;;;;;;;;5074788;28;1898;-62
2021/01/12 15:04:10;;;;;;;;;;;;;;;;;;5075214;28;884;-64
2021/01/12 15:06:36;;;;;;;;;;;;;;;;;;5075164;28;1413;-65
2021/01/12 15:09:05;;;;;;;;;;;;;;;;;;5074819;28;829;-65
2021/01/12 15:11:31;;;;;;;;;;;;;;;;;;5074583;28;872;-65
2021/01/12 15:13:56;;;;;;;;;;;;;;;;;;5074991;28;797;-65
2021/01/12 15:16:21;;;;;;;;;;;;;;;;;;5073229;28;1424;-64
2021/01/12 15:18:47;;;;;;;;;;;;;;;;;;5075446;28;801;-64
2021/01/12 15:21:12;;;;;;;;;;;;;;;;;;5074857;28;1902;-64
2021/01/12 15:23:38;;;;;;;;;;;;;;;;;;5074730;28;908;-64
2021/01/12 15:26:04;;;;;;;;;;;;;;;;;;5073576;28;1318;-64
2021/01/12 15:28:30;;;;;;;;;;;;;;;;;;5073520;28;1687;-65
2021/01/12 15:30:55;;;;;;;;;;;;;;;;;;5073233;28;1357;-65
2021/01/12 15:33:20;;;;;;;;;;;;;;;;;;5074839;28;880;-66
2021/01/12 15:35:45;;;;;;;;;;;;;;;;;;5074859;28;1432;-66
2021/01/12 15:38:11;;;;;;;;;;;;;;;;;;5074644;28;1189;-65
2021/01/12 15:40:36;;;;;;;;;;;;;;;;;;5073241;28;1971;-66
2021/01/12 15:43:01;;;;;;;;;;;;;;;;;;5074640;28;856;-66
2021/01/12 15:45:27;;;;;;;;;;;;;;;;;;5074297;28;1381;-66
2021/01/12 15:47:52;;;;;;;;;;;;;;;;;;5073532;28;940;-67
2021/01/12 15:50:17;;;;;;;;;;;;;;;;;;5072223;28;1267;-67
2021/01/12 15:52:44;;;;;;;;;;;;;;;;;;5074549;28;881;-67
2021/01/12 15:55:13;;;;;;;;;;;;;;;;;;5074327;28;1285;-68
2021/01/12 15:57:38;;;;;;;;;;;;;;;;;;5073155;28;1241;-66
2021/01/12 16:00:04;;;;;;;;;;;;;;;;;;5073996;28;1959;-67
2021/01/12 16:02:30;;;;;;;;;;;;;;;;;;5074180;28;952;-67
2021/01/12 16:04:56;;;;;;;;;;;;;;;;;;5073711;28;1270;-66
2021/01/12 16:07:21;;;;;;;;;;;;;;;;;;5073221;28;923;-68
2021/01/12 16:09:47;;;;;;;;;;;;;;;;;;5074021;28;967;-67
2021/01/12 16:12:13;;;;;;;;;;;;;;;;;;5074670;28;1101;-65
2021/01/12 16:14:38;;;;;;;;;;;;;;;;;;5074264;28;1298;-67
2021/01/12 16:17:03;;;;;;;;;;;;;;;;;;5072994;28;1201;-67
2021/01/12 16:19:28;;;;;;;;;;;;;;;;;;5072895;28;1277;-66
2021/01/12 16:21:54;;;;;;;;;;;;;;;;;;5074123;28;1957;-68
2021/01/12 16:24:19;;;;;;;;;;;;;;;;;;5072971;28;1380;-67
2021/01/12 16:26:45;;;;;;;;;;;;;;;;;;5072969;28;1484;-68
2021/01/12 16:29:10;;;;;;;;;;;;;;;;;;5074070;28;899;-67
2021/01/12 16:31:35;;;;;;;;;;;;;;;;;;5072784;28;860;-67
2021/01/12 16:34:01;;;;;;;;;;;;;;;;;;5073970;28;920;-67
2021/01/12 16:36:27;;;;;;;;;;;;;;;;;;5073913;28;1342;-66
2021/01/12 16:38:53;;;;;;;;;;;;;;;;;;5074257;28;841;-66
2021/01/12 16:41:19;;;;;;;;;;;;;;;;;;5072363;28;1977;-65
2021/01/12 16:43:56;;;;;;;;;;;;;;;;;;5072882;28;1543;-66
2021/01/12 16:46:21;;;;;;;;;;;;;;;;;;5072540;28;1462;-66
2021/01/12 16:48:46;;;;;;;;;;;;;;;;;;5074083;28;960;-69
2021/01/12 16:51:12;;;;;;;;;;;;;;;;;;5073972;28;900;-69
2021/01/12 16:53:37;;;;;;;;;;;;;;;;;;5072687;28;836;-68
2021/01/12 16:56:17;;;;;;;;;;;;;;;;;;5072444;28;1408;-68
2021/01/12 16:58:51;;;;;;;;;;;;;;;;;;5074189;28;896;-68
2021/01/12 17:01:18;;;;;;;;;;;;;;;;;;5073860;28;1910;-69
2021/01/12 17:03:44;;;;;;;;;;;;;;;;;;5077167;28;896;-68